createdAt,value
2017-09-26T00:00:37.229Z,21.53
2017-09-26T00:03:06.810Z,21.63
2017-09-26T00:05:35.626Z,21.57
2017-09-26T00:08:04.402Z,20.40
2017-09-26T00:10:33.616Z,21.90
2017-09-26T00:13:02.691Z,23.50
2017-09-26T00:15:31.462Z,22.90
2017-09-26T00:18:01.102Z,23.60
2017-09-26T00:20:30.308Z,23.83
2017-09-26T00:22:59.437Z,21.80
2017-09-26T00:25:28.397Z,21.33
2017-09-26T00:27:57.291Z,23.47
2017-09-26T00:30:25.914Z,22.50
2017-09-26T00:32:55.638Z,22.93
2017-09-26T00:35:24.009Z,23.40
2017-09-26T00:37:55.059Z,21.20
2017-09-26T00:40:24.253Z,20.97
2017-09-26T00:42:53.854Z,24.17
2017-09-26T00:45:23.475Z,24.63
2017-09-26T00:47:52.133Z,23.07
2017-09-26T00:50:20.979Z,25.30
2017-09-26T00:52:50.054Z,23.13
2017-09-26T00:55:19.031Z,23.73
2017-09-26T00:57:48.957Z,24.30
2017-09-26T01:00:18.236Z,23.93
2017-09-26T01:02:47.228Z,23.27
2017-09-26T01:08:22.623Z,24.90
2017-09-26T01:10:51.693Z,24.73
2017-09-26T01:13:21.719Z,24.87
2017-09-26T01:15:51.643Z,24.57
2017-09-26T01:18:20.347Z,25.67
2017-09-26T01:20:49.809Z,27.40
2017-09-26T01:23:18.710Z,25.77
2017-09-26T01:25:47.570Z,27.87
2017-09-26T01:28:17.453Z,26.53
2017-09-26T01:30:46.781Z,25.70
2017-09-26T01:33:15.960Z,26.70
2017-09-26T01:35:45.070Z,25.33
2017-09-26T01:38:13.616Z,26.00
2017-09-26T01:40:54.917Z,25.00
2017-09-26T01:43:23.503Z,28.07
2017-09-26T01:45:52.571Z,27.87
2017-09-26T01:48:21.414Z,29.10
2017-09-26T01:50:50.784Z,29.60
2017-09-26T01:53:19.343Z,26.23
2017-09-26T01:55:48.068Z,29.50
2017-09-26T01:58:17.751Z,27.97
2017-09-26T02:00:46.735Z,28.57
2017-09-26T02:03:15.475Z,28.07
2017-09-26T02:05:44.941Z,28.37
2017-09-26T02:08:14.228Z,27.27
2017-09-26T02:10:43.600Z,28.53
2017-09-26T02:13:12.617Z,27.60
2017-09-26T02:15:42.439Z,28.67
2017-09-26T02:18:11.783Z,28.97
2017-09-26T02:20:40.693Z,28.63
2017-09-26T02:23:09.604Z,27.73
2017-09-26T02:25:38.919Z,29.50
2017-09-26T02:28:08.244Z,29.27
2017-09-26T02:30:36.871Z,28.80
2017-09-26T02:33:06.475Z,30.30
2017-09-26T02:35:35.552Z,29.27
2017-09-26T02:38:04.709Z,31.23
2017-09-26T02:40:33.785Z,29.80
2017-09-26T02:43:02.709Z,29.63
2017-09-26T02:45:31.439Z,30.60
2017-09-26T02:48:01.209Z,34.43
2017-09-26T02:50:29.988Z,33.30
2017-09-26T02:52:58.739Z,33.70
2017-09-26T02:55:27.769Z,34.40
2017-09-26T02:57:57.109Z,34.30
2017-09-26T03:00:26.023Z,35.53
2017-09-26T03:02:54.854Z,35.37
2017-09-26T03:05:23.827Z,37.37
2017-09-26T03:07:52.896Z,33.77
2017-09-26T03:10:21.671Z,35.30
2017-09-26T03:12:50.993Z,31.70
2017-09-26T03:15:19.775Z,34.70
2017-09-26T03:17:48.397Z,34.93
2017-09-26T03:20:17.075Z,34.60
2017-09-26T03:22:46.151Z,32.93
2017-09-26T03:25:15.778Z,33.53
2017-09-26T03:27:44.781Z,35.97
2017-09-26T03:30:14.358Z,34.50
2017-09-26T03:32:43.858Z,34.50
2017-09-26T03:35:12.676Z,35.77
2017-09-26T03:37:41.823Z,35.67
2017-09-26T03:40:11.064Z,36.37
2017-09-26T03:42:40.680Z,36.40
2017-09-26T03:45:10.122Z,35.67
2017-09-26T03:47:38.932Z,35.83
2017-09-26T03:50:08.065Z,37.03
2017-09-26T03:52:36.802Z,34.50
2017-09-26T03:55:05.395Z,34.70
2017-09-26T03:57:34.621Z,35.87
2017-09-26T04:00:03.397Z,36.90
2017-09-26T04:02:32.050Z,38.43
2017-09-26T04:05:00.686Z,34.90
2017-09-26T04:07:29.741Z,33.60
2017-09-26T04:09:59.060Z,37.73
2017-09-26T04:12:28.354Z,36.37
2017-09-26T04:14:57.200Z,34.70
2017-09-26T04:17:26.899Z,34.47
2017-09-26T04:19:55.985Z,36.10
2017-09-26T04:22:24.820Z,37.00
2017-09-26T04:24:53.720Z,37.30
2017-09-26T04:27:22.466Z,38.40
2017-09-26T04:29:51.340Z,39.60
2017-09-26T04:32:21.760Z,39.00
2017-09-26T04:34:50.847Z,36.57
2017-09-26T04:37:19.700Z,37.37
2017-09-26T04:39:48.511Z,39.30
2017-09-26T04:42:17.544Z,37.10
2017-09-26T04:44:46.181Z,36.13
2017-09-26T04:47:15.134Z,37.27
2017-09-26T04:49:44.172Z,35.70
2017-09-26T04:52:13.540Z,37.90
2017-09-26T04:54:42.795Z,35.40
2017-09-26T04:57:12.220Z,38.13
2017-09-26T04:59:41.352Z,37.40
2017-09-26T05:02:11.210Z,37.17
2017-09-26T05:04:41.209Z,35.17
2017-09-26T05:07:10.327Z,36.47
2017-09-26T05:09:40.308Z,33.03
2017-09-26T05:12:10.219Z,34.10
2017-09-26T05:14:39.911Z,35.77
2017-09-26T05:17:08.757Z,38.03
2017-09-26T05:19:39.187Z,37.20
2017-09-26T05:22:09.050Z,35.87
2017-09-26T05:24:38.363Z,37.27
2017-09-26T05:27:08.475Z,36.43
2017-09-26T05:29:38.129Z,36.07
2017-09-26T05:32:08.029Z,33.90
2017-09-26T05:34:36.800Z,33.77
2017-09-26T05:37:05.983Z,34.30
2017-09-26T05:39:35.583Z,34.47
2017-09-26T05:42:05.105Z,33.13
2017-09-26T05:44:34.184Z,34.20
2017-09-26T05:47:04.296Z,36.70
2017-09-26T05:49:33.647Z,35.03
2017-09-26T05:52:03.501Z,38.10
2017-09-26T05:54:32.771Z,33.63
2017-09-26T05:57:02.733Z,33.80
2017-09-26T05:59:32.022Z,33.20
2017-09-26T06:02:01.879Z,33.00
2017-09-26T06:04:31.294Z,31.73
2017-09-26T06:06:59.980Z,33.57
2017-09-26T06:09:28.938Z,34.67
2017-09-26T06:11:57.596Z,33.90
2017-09-26T06:14:26.622Z,34.17
2017-09-26T06:16:55.624Z,34.57
2017-09-26T06:19:24.743Z,32.00
2017-09-26T06:21:53.389Z,33.27
2017-09-26T06:24:22.269Z,33.50
2017-09-26T06:26:51.418Z,33.87
2017-09-26T06:29:20.142Z,32.43
2017-09-26T06:31:49.003Z,32.70
2017-09-26T06:34:18.930Z,31.20
2017-09-26T06:36:47.783Z,32.33
2017-09-26T06:39:16.698Z,33.67
2017-09-26T06:41:45.953Z,33.03
2017-09-26T06:44:15.063Z,33.30
2017-09-26T06:46:44.129Z,31.50
2017-09-26T06:49:13.897Z,33.23
2017-09-26T06:51:43.053Z,34.33
2017-09-26T06:54:11.728Z,34.10
2017-09-26T06:56:41.329Z,32.67
2017-09-26T06:59:10.550Z,34.23
2017-09-26T07:01:39.584Z,33.50
2017-09-26T07:04:08.870Z,31.53
2017-09-26T07:06:37.562Z,34.10
2017-09-26T07:09:06.614Z,32.03
2017-09-26T07:11:36.243Z,33.20
2017-09-26T07:14:05.181Z,33.93
2017-09-26T07:16:35.136Z,38.80
2017-09-26T07:19:04.537Z,33.40
2017-09-26T07:21:34.566Z,31.50
2017-09-26T07:24:03.620Z,29.60
2017-09-26T07:26:32.356Z,32.73
2017-09-26T07:29:01.894Z,29.83
2017-09-26T07:31:30.929Z,30.73
2017-09-26T07:33:59.659Z,29.83
2017-09-26T07:36:28.691Z,31.60
2017-09-26T07:38:57.060Z,31.60
2017-09-26T07:41:26.143Z,31.37
2017-09-26T07:43:54.857Z,30.97
2017-09-26T07:46:23.805Z,30.60
2017-09-26T07:48:52.847Z,32.03
2017-09-26T07:51:21.768Z,30.40
2017-09-26T07:53:51.378Z,29.43
2017-09-26T07:56:20.007Z,29.40
2017-09-26T07:58:49.248Z,32.60
2017-09-26T08:01:18.833Z,31.80
2017-09-26T08:03:48.692Z,29.17
2017-09-26T08:06:18.937Z,30.50
2017-09-26T08:08:48.122Z,29.27
2017-09-26T08:11:17.277Z,31.57
2017-09-26T08:13:46.142Z,32.03
2017-09-26T08:16:15.496Z,30.60
2017-09-26T08:18:45.052Z,29.30
2017-09-26T08:21:13.917Z,29.83
2017-09-26T08:23:42.875Z,28.87
2017-09-26T08:26:12.232Z,27.03
2017-09-26T08:28:41.180Z,27.13
2017-09-26T08:31:09.750Z,28.90
2017-09-26T08:33:39.196Z,26.30
2017-09-26T08:36:07.968Z,26.50
2017-09-26T08:38:38.119Z,28.33
2017-09-26T08:41:07.033Z,26.90
2017-09-26T08:43:36.186Z,26.27
2017-09-26T08:46:05.095Z,26.03
2017-09-26T08:48:33.691Z,27.20
2017-09-26T08:51:02.830Z,27.67
2017-09-26T08:53:31.824Z,25.30
2017-09-26T08:56:00.830Z,26.90
2017-09-26T08:58:29.738Z,28.20
2017-09-26T09:00:58.665Z,27.70
2017-09-26T09:03:27.610Z,27.77
2017-09-26T09:05:56.796Z,27.40
2017-09-26T09:08:25.881Z,28.20
2017-09-26T09:10:54.492Z,27.17
2017-09-26T09:13:23.329Z,27.67
2017-09-26T09:15:51.980Z,27.90
2017-09-26T09:18:21.151Z,29.27
2017-09-26T09:20:50.989Z,30.00
2017-09-26T09:23:23.872Z,27.93
2017-09-26T09:25:52.722Z,28.53
2017-09-26T09:28:21.689Z,27.80
2017-09-26T09:30:50.940Z,27.30
2017-09-26T09:33:21.065Z,28.20
2017-09-26T09:35:50.136Z,29.63
2017-09-26T09:38:18.732Z,28.27
2017-09-26T09:40:47.477Z,28.97
2017-09-26T09:43:17.907Z,26.10
2017-09-26T09:45:46.851Z,26.70
2017-09-26T09:48:16.754Z,26.37
2017-09-26T09:50:46.487Z,26.50
2017-09-26T09:53:15.657Z,26.60
2017-09-26T09:55:44.965Z,25.70
2017-09-26T09:58:13.739Z,27.27
2017-09-26T10:00:42.804Z,28.27
2017-09-26T10:03:11.707Z,28.53
2017-09-26T10:05:40.370Z,29.47
2017-09-26T10:08:10.304Z,29.83
2017-09-26T10:10:39.491Z,30.70
2017-09-26T10:13:08.481Z,29.90
2017-09-26T10:15:37.350Z,30.37
2017-09-26T10:18:06.459Z,31.23
2017-09-26T10:20:35.178Z,28.50
2017-09-26T10:23:04.428Z,29.00
2017-09-26T10:25:33.390Z,27.97
2017-09-26T10:28:02.751Z,28.23
2017-09-26T10:30:31.958Z,27.53
2017-09-26T10:33:00.882Z,27.40
2017-09-26T10:35:30.566Z,27.27
2017-09-26T10:37:59.305Z,25.70
2017-09-26T10:40:28.111Z,27.00
2017-09-26T10:42:57.608Z,27.23
2017-09-26T10:45:26.840Z,27.33
2017-09-26T10:47:55.950Z,24.13
2017-09-26T10:50:24.691Z,23.17
2017-09-26T10:52:53.455Z,24.40
2017-09-26T10:55:22.266Z,24.77
2017-09-26T10:57:51.158Z,25.20
2017-09-26T11:00:23.451Z,23.90
2017-09-26T11:02:52.433Z,22.20
2017-09-26T11:05:21.067Z,23.53
2017-09-26T11:07:49.890Z,22.67
2017-09-26T11:10:19.732Z,21.17
2017-09-26T11:12:48.857Z,21.37
2017-09-26T11:15:17.712Z,22.70
2017-09-26T11:17:48.082Z,20.80
2017-09-26T11:20:17.341Z,22.20
2017-09-26T11:22:46.042Z,22.90
2017-09-26T11:25:14.956Z,21.17
2017-09-26T11:27:44.320Z,21.80
2017-09-26T11:30:13.433Z,21.70
2017-09-26T11:32:42.193Z,21.50
2017-09-26T11:35:11.393Z,21.40
2017-09-26T11:37:40.530Z,21.50
2017-09-26T11:40:10.478Z,20.63
2017-09-26T11:42:39.506Z,20.93
2017-09-26T11:45:08.702Z,22.10
2017-09-26T11:47:37.785Z,22.53
2017-09-26T11:50:07.211Z,21.17
2017-09-26T11:52:37.598Z,21.27
2017-09-26T11:55:06.459Z,21.27
2017-09-26T11:57:35.986Z,20.20
2017-09-26T12:00:05.250Z,21.00
2017-09-26T12:02:34.345Z,20.67
2017-09-26T12:05:03.231Z,21.63
2017-09-26T12:07:32.928Z,20.33
2017-09-26T12:10:02.150Z,20.83
2017-09-26T12:12:31.089Z,20.20
2017-09-26T12:14:59.784Z,21.27
2017-09-26T12:17:28.849Z,21.40
2017-09-26T12:19:57.676Z,22.03
2017-09-26T12:22:26.681Z,23.20
2017-09-26T12:24:55.611Z,24.00
2017-09-26T12:27:24.513Z,24.47
2017-09-26T12:29:53.061Z,24.10
2017-09-26T12:32:22.047Z,23.27
2017-09-26T12:34:51.498Z,23.80
2017-09-26T12:37:20.312Z,22.60
2017-09-26T12:39:51.222Z,23.10
2017-09-26T12:42:19.951Z,24.43
2017-09-26T12:44:49.312Z,24.87
2017-09-26T12:47:18.313Z,21.73
2017-09-26T12:49:49.776Z,23.20
2017-09-26T12:52:19.016Z,21.50
2017-09-26T12:54:47.734Z,24.17
2017-09-26T12:57:16.835Z,22.30
2017-09-26T12:59:45.966Z,22.20
2017-09-26T13:02:14.673Z,23.47
2017-09-26T13:04:43.511Z,23.20
2017-09-26T13:07:12.208Z,21.47
2017-09-26T13:09:41.293Z,24.33
2017-09-26T13:12:10.276Z,22.90
2017-09-26T13:14:39.116Z,24.27
2017-09-26T13:17:08.154Z,25.20
2017-09-26T13:19:37.365Z,23.03
2017-09-26T13:22:06.618Z,24.00
2017-09-26T13:24:35.952Z,24.47
2017-09-26T13:27:05.067Z,22.83
2017-09-26T13:29:34.752Z,23.90
2017-09-26T13:32:03.490Z,23.30
2017-09-26T13:34:32.954Z,24.17
2017-09-26T13:37:02.442Z,23.53
2017-09-26T13:39:31.314Z,25.10
2017-09-26T13:42:00.220Z,24.07
2017-09-26T13:44:29.462Z,24.60
2017-09-26T13:46:58.763Z,25.70
2017-09-26T13:49:28.077Z,26.13
2017-09-26T13:51:57.235Z,27.20
2017-09-26T13:54:25.744Z,24.43
2017-09-26T13:56:54.452Z,24.60
2017-09-26T13:59:23.249Z,25.63
2017-09-26T14:01:52.421Z,24.50
2017-09-26T14:04:21.872Z,26.53
2017-09-26T14:06:50.852Z,26.47
2017-09-26T14:09:19.483Z,26.70
2017-09-26T14:11:49.421Z,28.23
2017-09-26T14:14:18.037Z,26.63
2017-09-26T14:16:46.754Z,27.37
2017-09-26T14:19:16.169Z,27.60
2017-09-26T14:21:45.226Z,26.77
2017-09-26T14:24:13.794Z,26.53
2017-09-26T14:26:43.068Z,26.40
2017-09-26T14:29:12.067Z,26.60
2017-09-26T14:31:40.778Z,25.23
2017-09-26T14:34:10.463Z,24.87
2017-09-26T14:36:39.512Z,25.60
2017-09-26T14:39:08.405Z,26.20
2017-09-26T14:41:37.370Z,23.37
2017-09-26T14:44:06.442Z,24.00
2017-09-26T14:46:35.160Z,23.90
2017-09-26T14:49:16.372Z,22.00
2017-09-26T14:51:45.540Z,22.37
2017-09-26T14:54:14.768Z,22.70
2017-09-26T14:56:44.014Z,22.70
2017-09-26T14:59:12.891Z,22.60
2017-09-26T15:01:42.040Z,24.90
2017-09-26T15:04:11.593Z,24.03
2017-09-26T15:06:40.530Z,23.63
2017-09-26T15:09:08.912Z,25.67
2017-09-26T15:11:37.601Z,24.23
2017-09-26T15:14:07.362Z,25.57
2017-09-26T15:16:36.992Z,24.90
2017-09-26T15:19:06.582Z,25.50
2017-09-26T15:21:35.838Z,26.57
2017-09-26T15:24:04.231Z,26.13
2017-09-26T15:26:32.856Z,25.63
2017-09-26T15:29:02.399Z,27.30
2017-09-26T15:31:32.506Z,28.20
2017-09-26T15:34:01.896Z,28.83
2017-09-26T15:36:30.402Z,28.97
2017-09-26T15:38:59.324Z,28.30
2017-09-26T15:41:28.504Z,26.97
2017-09-26T15:43:57.235Z,26.17
2017-09-26T15:46:26.506Z,26.43
2017-09-26T15:48:57.095Z,31.97
2017-09-26T15:51:26.398Z,27.83
2017-09-26T15:53:55.571Z,27.17
2017-09-26T15:56:24.490Z,27.80
2017-09-26T15:58:53.425Z,28.43
2017-09-26T16:01:22.531Z,29.20
2017-09-26T16:03:51.726Z,28.07
2017-09-26T16:06:20.662Z,27.23
2017-09-26T16:08:49.911Z,27.27
2017-09-26T16:11:18.533Z,26.83
2017-09-26T16:13:47.690Z,26.77
2017-09-26T16:16:17.002Z,27.80
2017-09-26T16:18:46.248Z,27.20
2017-09-26T16:21:15.110Z,25.90
2017-09-26T16:23:43.930Z,26.80
2017-09-26T16:26:13.187Z,25.33
2017-09-26T16:28:42.265Z,25.10
2017-09-26T16:31:12.290Z,25.63
2017-09-26T16:33:42.053Z,25.37
2017-09-26T16:36:11.837Z,25.63
2017-09-26T16:38:40.448Z,26.53
2017-09-26T16:41:09.253Z,25.70
2017-09-26T16:43:38.117Z,26.57
2017-09-26T16:46:06.840Z,26.03
2017-09-26T16:48:36.763Z,28.13
2017-09-26T16:51:06.434Z,27.77
2017-09-26T16:53:35.342Z,28.40
2017-09-26T16:56:04.491Z,27.60
2017-09-26T16:58:34.330Z,26.07
2017-09-26T17:01:03.161Z,26.90
2017-09-26T17:03:32.049Z,27.40
2017-09-26T17:06:00.544Z,26.60
2017-09-26T17:08:30.095Z,26.67
2017-09-26T17:10:59.607Z,27.30
2017-09-26T17:13:28.748Z,27.40
2017-09-26T17:15:58.042Z,26.03
2017-09-26T17:18:26.613Z,26.40
2017-09-26T17:20:55.794Z,27.80
2017-09-26T17:23:24.735Z,27.23
2017-09-26T17:25:53.542Z,27.20
2017-09-26T17:28:22.594Z,27.97
2017-09-26T17:30:51.388Z,27.10
2017-09-26T17:33:20.118Z,27.20
2017-09-26T17:35:48.688Z,27.00
2017-09-26T17:38:17.272Z,27.67
2017-09-26T17:40:46.016Z,28.10
2017-09-26T17:43:15.852Z,27.17
2017-09-26T17:45:44.666Z,26.87
2017-09-26T17:48:13.371Z,28.23
2017-09-26T17:50:43.596Z,27.77
2017-09-26T17:53:12.347Z,27.63
2017-09-26T17:55:41.187Z,29.40
2017-09-26T17:58:10.495Z,27.83
2017-09-26T18:00:38.960Z,28.60
2017-09-26T18:03:08.437Z,26.40
2017-09-26T18:05:37.436Z,26.97
2017-09-26T18:08:06.063Z,28.10
2017-09-26T18:10:35.144Z,29.20
2017-09-26T18:13:04.539Z,29.03
2017-09-26T18:15:33.761Z,28.27
2017-09-26T18:18:03.370Z,30.73
2017-09-26T18:20:32.663Z,29.80
2017-09-26T18:23:02.280Z,32.17
2017-09-26T18:25:31.163Z,30.67
2017-09-26T18:27:59.798Z,28.50
2017-09-26T18:30:28.894Z,30.20
2017-09-26T18:32:58.168Z,28.47
2017-09-26T18:35:27.261Z,31.80
2017-09-26T18:37:56.062Z,29.77
2017-09-26T18:40:25.076Z,31.80
2017-09-26T18:42:54.613Z,31.33
2017-09-26T18:45:23.906Z,30.43
2017-09-26T18:47:52.466Z,31.67
2017-09-26T18:50:21.258Z,33.13
2017-09-26T18:52:50.675Z,31.33
2017-09-26T18:55:19.768Z,30.77
2017-09-26T18:57:48.865Z,30.87
2017-09-26T19:00:18.275Z,30.90
2017-09-26T19:02:47.201Z,31.20
2017-09-26T19:05:15.862Z,32.40
2017-09-26T19:07:44.986Z,31.20
2017-09-26T19:10:14.536Z,30.13
2017-09-26T19:12:43.227Z,33.47
2017-09-26T19:15:13.275Z,31.10
2017-09-26T19:17:41.851Z,31.97
2017-09-26T19:20:11.108Z,33.20
2017-09-26T19:22:40.199Z,32.37
2017-09-26T19:25:09.090Z,31.03
2017-09-26T19:27:38.069Z,32.97
2017-09-26T19:30:06.880Z,31.57
2017-09-26T19:32:35.877Z,31.07
2017-09-26T19:35:05.442Z,30.60
2017-09-26T19:37:34.758Z,33.20
2017-09-26T19:40:03.994Z,29.33
2017-09-26T19:42:33.087Z,31.07
2017-09-26T19:45:03.952Z,30.70
2017-09-26T19:47:33.155Z,29.27
2017-09-26T19:50:02.158Z,31.13
2017-09-26T19:52:31.716Z,30.07
2017-09-26T19:55:00.959Z,30.60
2017-09-26T19:57:29.830Z,31.07
2017-09-26T19:59:58.793Z,32.20
2017-09-26T20:02:28.125Z,34.57
2017-09-26T20:04:56.929Z,32.70
2017-09-26T20:07:25.830Z,31.70
2017-09-26T20:09:54.712Z,32.20
2017-09-26T20:12:23.893Z,31.67
2017-09-26T20:14:53.222Z,34.43
2017-09-26T20:17:22.325Z,33.60
2017-09-26T20:19:51.026Z,34.07
2017-09-26T20:22:19.486Z,32.93
2017-09-26T20:24:48.189Z,33.17
2017-09-26T20:27:16.909Z,33.83
2017-09-26T20:29:45.726Z,32.83
2017-09-26T20:32:14.453Z,33.83
2017-09-26T20:34:42.919Z,35.70
2017-09-26T20:37:12.358Z,32.30
2017-09-26T20:39:41.596Z,34.07
2017-09-26T20:42:10.662Z,32.30
2017-09-26T20:44:39.325Z,35.40
2017-09-26T20:47:08.036Z,35.63
2017-09-26T20:49:36.716Z,33.00
2017-09-26T20:52:06.839Z,33.67
2017-09-26T20:54:35.745Z,34.07
2017-09-26T20:57:04.976Z,33.87
2017-09-26T20:59:33.680Z,34.33
2017-09-26T21:02:03.560Z,36.00
2017-09-26T21:04:32.219Z,35.43
2017-09-26T21:07:02.528Z,34.87
2017-09-26T21:09:31.233Z,35.60
2017-09-26T21:12:00.327Z,34.97
2017-09-26T21:14:30.666Z,33.20
2017-09-26T21:16:59.622Z,33.03
2017-09-26T21:19:28.746Z,35.60
2017-09-26T21:21:57.423Z,34.90
2017-09-26T21:24:25.978Z,35.30
2017-09-26T21:26:55.550Z,35.87
2017-09-26T21:29:24.709Z,35.33
2017-09-26T21:31:53.814Z,33.50
2017-09-26T21:34:22.769Z,36.90
2017-09-26T21:36:51.909Z,35.43
2017-09-26T21:39:20.978Z,36.30
2017-09-26T21:41:50.204Z,35.60
2017-09-26T21:44:19.058Z,33.90
2017-09-26T21:46:48.159Z,36.63
2017-09-26T21:49:16.742Z,36.63
2017-09-26T21:51:45.627Z,36.80
2017-09-26T21:54:14.667Z,35.57
2017-09-26T21:56:44.285Z,36.17
2017-09-26T21:59:13.102Z,37.50
2017-09-26T22:01:42.017Z,36.37
2017-09-26T22:04:11.130Z,35.70
2017-09-26T22:06:40.314Z,36.30
2017-09-26T22:09:09.141Z,36.63
2017-09-26T22:11:38.343Z,36.50
2017-09-26T22:14:07.404Z,35.27
2017-09-26T22:16:36.874Z,34.90
2017-09-26T22:19:05.526Z,36.87
2017-09-26T22:21:34.255Z,36.00
2017-09-26T22:24:03.572Z,36.37
2017-09-26T22:26:33.688Z,37.70
2017-09-26T22:29:02.311Z,38.83
2017-09-26T22:31:31.374Z,39.60
2017-09-26T22:34:00.170Z,36.13
2017-09-26T22:36:29.937Z,37.70
2017-09-26T22:38:58.948Z,37.47
2017-09-26T22:41:27.635Z,37.80
2017-09-26T22:43:56.592Z,37.77
2017-09-26T22:46:26.025Z,38.23
2017-09-26T22:48:54.828Z,38.70
2017-09-26T22:51:24.242Z,36.77
2017-09-26T22:53:53.374Z,38.40
2017-09-26T22:56:21.930Z,35.93
2017-09-26T22:58:52.013Z,39.80
2017-09-26T23:01:21.081Z,38.70
2017-09-26T23:03:49.898Z,37.00
2017-09-26T23:06:19.194Z,38.30
2017-09-26T23:08:48.217Z,36.27
2017-09-26T23:11:18.062Z,38.43
2017-09-26T23:13:46.839Z,37.40
2017-09-26T23:16:16.033Z,36.70
2017-09-26T23:18:45.302Z,38.97
2017-09-26T23:21:14.671Z,36.67
2017-09-26T23:23:43.698Z,38.10
2017-09-26T23:26:12.960Z,33.47
2017-09-26T23:28:41.943Z,37.70
2017-09-26T23:31:11.189Z,39.00
2017-09-26T23:33:40.322Z,37.83
2017-09-26T23:36:10.027Z,39.20
2017-09-26T23:38:39.517Z,35.80
2017-09-26T23:41:08.858Z,39.30
2017-09-26T23:43:37.898Z,37.53
2017-09-26T23:46:07.238Z,36.30
2017-09-26T23:48:36.864Z,38.20
2017-09-26T23:51:05.366Z,35.77
2017-09-26T23:53:34.387Z,36.90
2017-09-26T23:56:03.121Z,38.27
2017-09-26T23:58:31.935Z,37.73
